createdAt,value
2023-01-08T00:01:12.457Z,5.07
2023-01-08T00:03:39.976Z,6.93
2023-01-08T00:06:10.618Z,5.27
2023-01-08T00:08:37.237Z,4.10
2023-01-08T00:11:03.673Z,3.70
2023-01-08T00:13:30.188Z,3.20
2023-01-08T00:15:56.663Z,7.00
2023-01-08T00:18:24.729Z,3.30
2023-01-08T00:20:51.190Z,3.80
2023-01-08T00:23:19.547Z,4.00
2023-01-08T00:25:46.742Z,5.33
2023-01-08T00:28:14.978Z,3.80
2023-01-08T00:30:42.078Z,4.67
2023-01-08T00:33:08.799Z,3.80
2023-01-08T00:35:37.218Z,3.10
2023-01-08T00:38:03.666Z,7.93
2023-01-08T00:40:30.140Z,3.77
2023-01-08T00:42:56.595Z,4.43
2023-01-08T00:45:23.073Z,6.30
2023-01-08T00:47:49.505Z,5.13
2023-01-08T00:50:16.713Z,3.67
2023-01-08T00:52:43.244Z,3.07
2023-01-08T00:55:09.914Z,4.40
2023-01-08T00:57:38.349Z,3.20
2023-01-08T01:00:08.673Z,3.63
2023-01-08T01:02:36.429Z,4.50
2023-01-08T01:05:03.409Z,3.40
2023-01-08T01:07:29.889Z,3.33
2023-01-08T01:09:56.406Z,4.77
2023-01-08T01:12:22.945Z,4.43
2023-01-08T01:14:49.429Z,3.97
2023-01-08T01:17:16.029Z,4.87
2023-01-08T01:19:43.165Z,4.70
2023-01-08T01:22:09.600Z,4.80
2023-01-08T01:24:36.347Z,4.03
2023-01-08T01:27:02.829Z,4.13
2023-01-08T01:29:29.244Z,3.40
2023-01-08T01:31:57.604Z,6.50
2023-01-08T01:34:24.407Z,3.93
2023-01-08T01:36:50.839Z,4.23
2023-01-08T01:39:17.355Z,4.90
2023-01-08T01:41:46.066Z,4.80
2023-01-08T01:44:34.608Z,6.37
2023-01-08T01:47:05.437Z,4.53
2023-01-08T01:49:33.017Z,5.53
2023-01-08T01:52:02.726Z,4.77
2023-01-08T01:54:31.265Z,5.73
2023-01-08T01:56:59.642Z,5.60
2023-01-08T01:59:26.119Z,5.63
2023-01-08T02:01:53.018Z,4.87
2023-01-08T02:04:19.556Z,5.40
2023-01-08T02:07:13.908Z,4.10
2023-01-08T02:09:51.903Z,3.67
2023-01-08T02:12:26.335Z,5.27
2023-01-08T02:15:03.189Z,4.00
2023-01-08T02:17:45.999Z,3.07
2023-01-08T02:20:18.813Z,4.20
2023-01-08T02:23:09.180Z,3.90
2023-01-08T02:25:57.492Z,4.87
2023-01-08T02:28:26.204Z,3.53
2023-01-08T02:30:53.233Z,3.37
2023-01-08T02:33:19.676Z,4.80
2023-01-08T02:35:54.492Z,4.20
2023-01-08T02:38:23.349Z,3.57
2023-01-08T02:41:07.179Z,5.40
2023-01-08T02:43:47.970Z,3.20
2023-01-08T02:46:19.176Z,3.83
2023-01-08T02:48:49.007Z,3.87
2023-01-08T02:51:30.636Z,6.97
2023-01-08T02:54:04.568Z,5.23
2023-01-08T02:56:35.868Z,4.57
2023-01-08T02:59:05.221Z,3.70
2023-01-08T03:01:33.639Z,4.20
2023-01-08T03:04:06.311Z,5.57
2023-01-08T03:06:33.262Z,4.30
2023-01-08T03:09:00.255Z,5.50
2023-01-08T03:11:33.098Z,5.83
2023-01-08T03:14:21.699Z,5.70
2023-01-08T03:16:55.253Z,3.90
2023-01-08T03:19:35.538Z,4.33
2023-01-08T03:22:03.745Z,4.50
2023-01-08T03:24:35.086Z,3.50
2023-01-08T03:27:05.538Z,3.80
2023-01-08T03:29:34.169Z,3.03
2023-01-08T03:32:05.422Z,6.17
2023-01-08T03:34:34.856Z,3.73
2023-01-08T03:37:04.998Z,5.07
2023-01-08T03:39:40.102Z,4.93
2023-01-08T03:42:10.408Z,3.60
2023-01-08T03:44:37.030Z,5.87
2023-01-08T03:47:04.359Z,3.27
2023-01-08T03:49:31.268Z,5.37
2023-01-08T03:51:57.680Z,5.03
2023-01-08T03:54:30.262Z,4.70
2023-01-08T03:56:56.989Z,4.47
2023-01-08T03:59:23.946Z,3.90
2023-01-08T04:01:50.535Z,3.77
2023-01-08T04:04:17.739Z,2.67
2023-01-08T04:06:44.301Z,3.00
2023-01-08T04:09:10.709Z,2.80
2023-01-08T04:11:37.224Z,3.50
2023-01-08T04:14:03.709Z,5.77
2023-01-08T04:16:30.173Z,4.63
2023-01-08T04:18:56.553Z,4.10
2023-01-08T04:21:22.963Z,4.63
2023-01-08T04:23:49.394Z,2.40
2023-01-08T04:26:15.805Z,2.93
2023-01-08T04:28:42.239Z,3.63
2023-01-08T04:31:09.980Z,4.67
2023-01-08T04:33:36.753Z,3.93
2023-01-08T04:36:04.244Z,2.43
2023-01-08T04:38:30.726Z,2.63
2023-01-08T04:40:58.601Z,3.27
2023-01-08T04:43:25.184Z,2.67
2023-01-08T04:45:51.730Z,2.00
2023-01-08T04:48:18.251Z,3.30
2023-01-08T04:50:44.740Z,2.13
2023-01-08T04:53:11.182Z,2.40
2023-01-08T04:55:39.667Z,3.03
2023-01-08T04:58:06.369Z,1.90
2023-01-08T05:00:32.954Z,1.80
2023-01-08T05:02:59.464Z,2.03
2023-01-08T05:05:26.001Z,1.90
2023-01-08T05:07:52.536Z,1.67
2023-01-08T05:10:18.978Z,2.40
2023-01-08T05:12:45.414Z,1.63
2023-01-08T05:15:11.813Z,3.70
2023-01-08T05:17:38.265Z,1.30
2023-01-08T05:20:05.081Z,2.20
2023-01-08T05:22:31.549Z,1.43
2023-01-08T05:24:58.004Z,3.40
2023-01-08T05:27:24.462Z,1.93
2023-01-08T05:29:51.739Z,1.30
2023-01-08T05:32:19.008Z,2.83
2023-01-08T05:34:46.189Z,1.30
2023-01-08T05:37:12.718Z,1.33
2023-01-08T05:39:39.184Z,2.10
2023-01-08T05:42:05.682Z,1.53
2023-01-08T05:44:32.116Z,1.43
2023-01-08T05:46:58.606Z,1.77
2023-01-08T05:49:25.145Z,1.10
2023-01-08T05:51:51.586Z,1.90
2023-01-08T05:54:18.026Z,1.27
2023-01-08T05:56:44.556Z,1.10
2023-01-08T05:59:12.064Z,2.07
2023-01-08T06:01:38.535Z,0.90
2023-01-08T06:04:05.300Z,0.93
2023-01-08T06:06:31.886Z,1.70
2023-01-08T06:08:58.417Z,1.67
2023-01-08T06:11:24.866Z,1.43
2023-01-08T06:13:51.343Z,1.37
2023-01-08T06:16:17.790Z,1.87
2023-01-08T06:18:44.276Z,0.77
2023-01-08T06:21:12.395Z,0.90
2023-01-08T06:23:39.737Z,0.73
2023-01-08T06:26:06.345Z,0.90
2023-01-08T06:28:33.021Z,1.57
2023-01-08T06:31:01.559Z,1.27
2023-01-08T06:33:28.517Z,1.10
2023-01-08T06:35:55.089Z,0.67
2023-01-08T06:38:21.670Z,1.70
2023-01-08T06:40:48.105Z,1.00
2023-01-08T06:43:14.779Z,1.07
2023-01-08T06:45:41.187Z,0.60
2023-01-08T06:48:07.657Z,1.77
2023-01-08T06:50:34.800Z,0.90
2023-01-08T06:53:01.536Z,0.73
2023-01-08T06:55:27.975Z,2.10
2023-01-08T06:57:55.346Z,1.17
2023-01-08T07:00:26.136Z,1.77
2023-01-08T07:02:53.823Z,10.93
2023-01-08T07:05:20.937Z,9.93
2023-01-08T07:07:47.449Z,6.60
2023-01-08T07:10:14.123Z,6.80
2023-01-08T07:12:40.695Z,6.40
2023-01-08T07:15:07.991Z,2.57
2023-01-08T07:17:34.923Z,3.23
2023-01-08T07:20:01.435Z,4.03
2023-01-08T07:22:28.310Z,2.33
2023-01-08T07:24:55.114Z,2.80
2023-01-08T07:27:21.628Z,3.20
2023-01-08T07:29:48.307Z,3.20
2023-01-08T07:32:14.741Z,2.53
2023-01-08T07:34:41.130Z,2.20
2023-01-08T07:37:07.573Z,1.90
2023-01-08T07:39:34.106Z,1.20
2023-01-08T07:42:00.923Z,2.73
2023-01-08T07:44:27.348Z,2.10
2023-01-08T07:46:53.844Z,1.30
2023-01-08T07:49:20.343Z,1.50
2023-01-08T07:51:49.228Z,2.20
2023-01-08T07:54:15.721Z,2.20
2023-01-08T07:56:42.189Z,3.40
2023-01-08T07:59:08.726Z,1.50
2023-01-08T08:01:35.296Z,2.20
2023-01-08T08:04:01.746Z,1.50
2023-01-08T08:06:28.143Z,1.10
2023-01-08T08:08:57.133Z,1.40
2023-01-08T08:11:23.543Z,1.10
2023-01-08T08:13:52.604Z,3.23
2023-01-08T08:16:20.035Z,8.13
2023-01-08T08:18:46.714Z,11.30
2023-01-08T08:21:13.210Z,8.47
2023-01-08T08:23:39.709Z,10.63
2023-01-08T08:26:07.917Z,7.47
2023-01-08T08:28:34.550Z,8.83
2023-01-08T08:31:03.631Z,3.63
2023-01-08T08:33:30.292Z,2.00
2023-01-08T08:35:56.818Z,1.17
2023-01-08T08:38:25.065Z,1.73
2023-01-08T08:40:51.929Z,1.57
2023-01-08T08:43:18.818Z,1.70
2023-01-08T08:45:45.569Z,2.13
2023-01-08T08:48:12.268Z,5.83
2023-01-08T08:50:39.287Z,2.20
2023-01-08T08:53:06.479Z,1.50
2023-01-08T08:55:38.403Z,1.07
2023-01-08T08:58:07.808Z,1.10
2023-01-08T09:00:34.738Z,1.20
2023-01-08T09:03:01.605Z,1.03
2023-01-08T09:05:28.947Z,0.80
2023-01-08T09:07:56.030Z,1.67
2023-01-08T09:10:24.162Z,1.27
2023-01-08T09:12:53.459Z,1.70
2023-01-08T09:15:23.448Z,2.47
2023-01-08T09:17:57.230Z,2.20
2023-01-08T09:20:25.459Z,1.30
2023-01-08T09:22:52.279Z,1.63
2023-01-08T09:25:19.397Z,2.33
2023-01-08T09:27:46.167Z,1.20
2023-01-08T09:30:12.791Z,0.87
2023-01-08T09:32:39.442Z,2.23
2023-01-08T09:35:07.066Z,3.23
2023-01-08T09:37:34.898Z,2.33
2023-01-08T09:40:03.964Z,4.63
2023-01-08T09:42:32.673Z,2.40
2023-01-08T09:45:01.872Z,1.83
2023-01-08T09:47:38.186Z,1.00
2023-01-08T09:50:11.319Z,2.00
2023-01-08T09:52:39.379Z,2.87
2023-01-08T09:55:14.124Z,1.43
2023-01-08T09:57:44.595Z,2.00
2023-01-08T10:00:33.786Z,1.13
2023-01-08T10:03:00.620Z,0.90
2023-01-08T10:05:28.444Z,1.20
2023-01-08T10:07:55.535Z,1.40
2023-01-08T10:10:29.306Z,2.43
2023-01-08T10:12:56.233Z,0.83
2023-01-08T10:15:24.976Z,1.27
2023-01-08T10:18:00.805Z,1.00
2023-01-08T10:20:27.631Z,1.00
2023-01-08T10:22:56.476Z,3.03
2023-01-08T10:25:26.139Z,1.00
2023-01-08T10:27:58.923Z,1.47
2023-01-08T10:30:39.944Z,0.50
2023-01-08T10:33:21.843Z,1.00
2023-01-08T10:36:09.211Z,0.60
2023-01-08T10:38:49.825Z,1.40
2023-01-08T10:41:18.342Z,0.50
2023-01-08T10:43:55.376Z,1.13
2023-01-08T10:46:25.086Z,0.57
2023-01-08T10:48:56.209Z,1.57
2023-01-08T10:51:28.702Z,1.17
2023-01-08T10:53:59.480Z,1.23
2023-01-08T10:56:29.618Z,1.67
2023-01-08T10:59:02.570Z,0.97
2023-01-08T11:01:31.757Z,3.60
2023-01-08T11:04:05.056Z,1.33
2023-01-08T11:06:34.302Z,1.77
2023-01-08T11:09:04.225Z,1.00
2023-01-08T11:11:35.747Z,2.53
2023-01-08T11:14:06.325Z,3.43
2023-01-08T11:16:37.009Z,1.70
2023-01-08T11:19:05.077Z,6.67
2023-01-08T11:21:33.480Z,2.00
2023-01-08T11:24:22.798Z,2.13
2023-01-08T11:26:54.001Z,2.73
2023-01-08T11:29:32.216Z,1.73
2023-01-08T11:32:19.029Z,4.87
2023-01-08T11:34:56.435Z,3.50
2023-01-08T11:37:29.262Z,2.63
2023-01-08T11:39:57.003Z,2.70
2023-01-08T11:42:44.954Z,1.53
2023-01-08T11:45:25.104Z,1.67
2023-01-08T11:48:47.875Z,1.57
2023-01-08T11:51:52.486Z,0.77
2023-01-08T11:54:42.086Z,1.40
2023-01-08T11:57:18.470Z,1.70
2023-01-08T12:00:19.254Z,2.20
2023-01-08T12:02:59.740Z,2.77
2023-01-08T12:05:52.055Z,2.90
2023-01-08T12:09:00.895Z,2.40
2023-01-08T12:11:34.424Z,1.43
2023-01-08T12:14:22.293Z,1.50
2023-01-08T12:17:04.836Z,1.63
2023-01-08T12:19:57.376Z,1.30
2023-01-08T12:22:47.392Z,1.67
2023-01-08T12:25:35.356Z,0.93
2023-01-08T12:28:28.543Z,1.00
2023-01-08T12:31:30.476Z,1.30
2023-01-08T12:34:05.858Z,1.83
2023-01-08T12:36:44.551Z,3.80
2023-01-08T12:39:24.371Z,2.90
2023-01-08T12:41:54.388Z,2.53
2023-01-08T12:44:26.680Z,1.40
2023-01-08T12:46:55.374Z,1.17
2023-01-08T12:49:32.322Z,2.60
2023-01-08T12:52:11.470Z,4.90
2023-01-08T12:54:48.920Z,1.23
2023-01-08T12:57:49.030Z,5.27
2023-01-08T13:00:23.148Z,3.30
2023-01-08T13:02:57.907Z,2.50
2023-01-08T13:05:24.787Z,1.73
2023-01-08T13:07:54.787Z,2.00
2023-01-08T13:10:39.879Z,1.67
2023-01-08T13:13:23.331Z,2.10
2023-01-08T13:15:50.437Z,3.87
2023-01-08T13:18:19.634Z,4.30
2023-01-08T13:20:57.507Z,3.27
2023-01-08T13:23:27.533Z,3.57
2023-01-08T13:25:57.460Z,5.93
2023-01-08T13:28:27.701Z,2.93
2023-01-08T13:30:57.702Z,1.40
2023-01-08T13:33:39.747Z,2.40
2023-01-08T13:36:20.887Z,3.73
2023-01-08T13:39:00.736Z,2.80
2023-01-08T13:41:41.749Z,4.17
2023-01-08T13:44:28.255Z,2.77
2023-01-08T13:47:01.291Z,1.97
2023-01-08T13:49:50.307Z,1.83
2023-01-08T13:52:46.140Z,1.90
2023-01-08T13:55:20.154Z,2.37
2023-01-08T13:57:51.176Z,4.63
2023-01-08T14:00:45.378Z,4.03
2023-01-08T14:03:30.163Z,5.73
2023-01-08T14:06:26.249Z,1.33
2023-01-08T14:08:58.766Z,4.67
2023-01-08T14:11:34.908Z,3.57
2023-01-08T14:14:03.190Z,3.23
2023-01-08T14:16:30.429Z,3.63
2023-01-08T14:19:01.096Z,1.70
2023-01-08T14:21:31.441Z,1.80
2023-01-08T14:24:00.710Z,2.50
2023-01-08T14:26:37.641Z,1.33
2023-01-08T14:29:21.639Z,1.37
2023-01-08T14:31:56.459Z,1.50
2023-01-08T14:34:31.287Z,1.33
2023-01-08T14:37:00.826Z,1.90
2023-01-08T14:39:31.750Z,1.37
2023-01-08T14:42:25.973Z,2.17
2023-01-08T14:44:59.511Z,1.47
2023-01-08T14:47:39.403Z,2.47
2023-01-08T14:50:23.955Z,1.30
2023-01-08T14:53:09.067Z,1.80
2023-01-08T14:55:44.771Z,1.63
2023-01-08T14:58:23.787Z,1.73
2023-01-08T15:01:05.542Z,2.83
2023-01-08T15:03:40.694Z,1.93
2023-01-08T15:06:08.454Z,2.50
2023-01-08T15:08:39.490Z,0.73
2023-01-08T15:11:36.639Z,1.73
2023-01-08T15:14:20.096Z,1.33
2023-01-08T15:16:48.365Z,2.67
2023-01-08T15:19:28.216Z,2.00
2023-01-08T15:21:58.453Z,2.70
2023-01-08T15:24:29.538Z,1.37
2023-01-08T15:26:57.094Z,1.30
2023-01-08T15:29:33.106Z,3.27
2023-01-08T15:32:12.893Z,2.27
2023-01-08T15:34:45.212Z,2.03
2023-01-08T15:37:15.002Z,9.87
2023-01-08T15:39:42.792Z,11.50
2023-01-08T15:42:43.893Z,17.70
2023-01-08T15:45:15.062Z,47.20
2023-01-08T15:47:42.213Z,14.67
2023-01-08T15:50:09.433Z,3.23
2023-01-08T15:52:40.473Z,2.10
2023-01-08T15:55:11.655Z,2.13
2023-01-08T15:57:40.451Z,2.43
2023-01-08T16:00:08.420Z,2.40
2023-01-08T16:02:47.231Z,2.17
2023-01-08T16:05:19.369Z,1.63
2023-01-08T16:07:46.728Z,1.20
2023-01-08T16:10:15.223Z,3.03
2023-01-08T16:12:43.631Z,1.60
2023-01-08T16:15:19.703Z,1.67
2023-01-08T16:17:46.358Z,3.50
2023-01-08T16:20:14.384Z,2.13
2023-01-08T16:22:41.343Z,2.27
2023-01-08T16:25:09.413Z,1.83
2023-01-08T16:27:38.302Z,1.43
2023-01-08T16:30:07.138Z,1.17
2023-01-08T16:32:33.957Z,2.37
2023-01-08T16:35:00.635Z,2.77
2023-01-08T16:37:27.465Z,1.93
2023-01-08T16:39:54.099Z,1.53
2023-01-08T16:42:20.704Z,2.37
2023-01-08T16:44:47.415Z,3.60
2023-01-08T16:47:13.953Z,1.63
2023-01-08T16:49:41.832Z,2.60
2023-01-08T16:52:09.687Z,2.50
2023-01-08T16:54:36.535Z,1.53
2023-01-08T16:57:03.514Z,3.20
2023-01-08T16:59:32.496Z,6.70
2023-01-08T17:01:59.808Z,3.20
2023-01-08T17:04:28.369Z,1.63
2023-01-08T17:06:55.015Z,3.77
2023-01-08T17:09:22.053Z,1.70
2023-01-08T17:11:48.511Z,1.93
2023-01-08T17:14:15.242Z,4.40
2023-01-08T17:16:42.898Z,5.57
2023-01-08T17:19:09.480Z,2.90
2023-01-08T17:21:36.575Z,3.43
2023-01-08T17:24:04.429Z,3.60
2023-01-08T17:26:32.140Z,2.23
2023-01-08T17:28:59.407Z,4.60
2023-01-08T17:31:27.556Z,17.17
2023-01-08T17:33:54.542Z,13.73
2023-01-08T17:36:23.609Z,11.87
2023-01-08T17:38:53.105Z,15.53
2023-01-08T17:41:40.131Z,16.30
2023-01-08T17:44:08.416Z,14.50
2023-01-08T17:46:42.756Z,5.17
2023-01-08T17:49:11.191Z,3.47
2023-01-08T17:51:38.851Z,2.03
2023-01-08T17:54:09.433Z,3.00
2023-01-08T17:56:36.636Z,5.93
2023-01-08T17:59:03.648Z,10.17
2023-01-08T18:01:30.785Z,4.60
2023-01-08T18:03:57.917Z,6.93
2023-01-08T18:06:24.555Z,14.13
2023-01-08T18:08:51.669Z,15.93
2023-01-08T18:11:21.606Z,7.40
2023-01-08T18:13:48.278Z,7.77
2023-01-08T18:16:15.434Z,7.57
2023-01-08T18:18:42.219Z,6.17
2023-01-08T18:21:10.323Z,6.03
2023-01-08T18:23:37.116Z,3.03
2023-01-08T18:26:07.815Z,10.23
2023-01-08T18:28:36.378Z,5.77
2023-01-08T18:31:07.176Z,5.97
2023-01-08T18:33:35.313Z,5.77
2023-01-08T18:36:06.153Z,3.20
2023-01-08T18:38:33.537Z,3.27
2023-01-08T18:41:00.297Z,5.43
2023-01-08T18:43:27.337Z,1.70
2023-01-08T18:46:01.963Z,2.67
2023-01-08T18:48:29.382Z,2.27
2023-01-08T18:50:56.173Z,4.10
2023-01-08T18:53:23.871Z,3.17
2023-01-08T18:55:50.588Z,3.67
2023-01-08T18:58:17.439Z,2.10
2023-01-08T19:00:44.508Z,2.23
2023-01-08T19:03:12.262Z,2.70
2023-01-08T19:05:45.303Z,5.10
2023-01-08T19:08:12.087Z,5.20
2023-01-08T19:10:40.100Z,2.57
2023-01-08T19:13:06.988Z,4.13
2023-01-08T19:15:33.660Z,3.27
2023-01-08T19:18:00.414Z,3.97
2023-01-08T19:20:28.067Z,3.20
2023-01-08T19:22:55.264Z,5.40
2023-01-08T19:25:23.017Z,3.40
2023-01-08T19:27:52.362Z,6.37
2023-01-08T19:30:19.060Z,9.13
2023-01-08T19:32:48.837Z,4.73
2023-01-08T19:35:15.634Z,2.60
2023-01-08T19:37:43.168Z,2.77
2023-01-08T19:40:10.450Z,3.20
2023-01-08T19:42:55.589Z,3.43
2023-01-08T19:45:22.394Z,3.77
2023-01-08T19:47:49.136Z,2.93
2023-01-08T19:50:16.186Z,4.30
2023-01-08T19:52:42.675Z,2.10
2023-01-08T19:55:10.164Z,3.03
2023-01-08T19:57:36.717Z,4.20
2023-01-08T20:00:04.686Z,3.07
2023-01-08T20:02:38.440Z,2.87
2023-01-08T20:05:05.592Z,2.63
2023-01-08T20:07:32.090Z,2.90
2023-01-08T20:09:58.756Z,4.40
2023-01-08T20:12:25.493Z,3.53
2023-01-08T20:14:52.136Z,2.80
2023-01-08T20:17:21.735Z,2.50
2023-01-08T20:19:50.279Z,2.57
2023-01-08T20:22:17.212Z,2.07
2023-01-08T20:24:45.416Z,2.23
2023-01-08T20:27:12.020Z,2.87
2023-01-08T20:29:39.246Z,3.03
2023-01-08T20:32:06.223Z,2.60
2023-01-08T20:34:33.296Z,2.30
2023-01-08T20:37:00.929Z,3.47
2023-01-08T20:39:27.563Z,3.17
2023-01-08T20:42:01.055Z,2.10
2023-01-08T20:44:30.412Z,2.60
2023-01-08T20:46:57.057Z,2.63
2023-01-08T20:49:25.328Z,1.90
2023-01-08T20:51:58.443Z,3.57
2023-01-08T20:54:26.280Z,2.73
2023-01-08T20:56:55.108Z,3.53
2023-01-08T20:59:24.059Z,4.20
2023-01-08T21:01:51.101Z,2.60
2023-01-08T21:04:17.965Z,3.83
2023-01-08T21:06:45.755Z,3.93
2023-01-08T21:09:14.296Z,3.97
2023-01-08T21:11:41.289Z,2.90
2023-01-08T21:14:08.956Z,4.30
2023-01-08T21:16:37.122Z,2.80
2023-01-08T21:19:03.827Z,3.33
2023-01-08T21:21:33.294Z,3.47
2023-01-08T21:24:04.248Z,2.90
2023-01-08T21:26:33.972Z,3.00
2023-01-08T21:29:03.122Z,3.80
2023-01-08T21:31:33.833Z,3.60
2023-01-08T21:34:03.997Z,3.00
2023-01-08T21:36:31.962Z,2.63
2023-01-08T21:39:00.449Z,2.73
2023-01-08T21:41:48.841Z,2.90
2023-01-08T21:44:40.338Z,4.43
2023-01-08T21:47:10.834Z,5.50
2023-01-08T21:49:38.467Z,4.13
2023-01-08T21:52:24.501Z,5.50
2023-01-08T21:54:51.538Z,7.30
2023-01-08T21:57:18.473Z,5.20
2023-01-08T21:59:48.297Z,5.60
2023-01-08T22:02:18.205Z,9.03
2023-01-08T22:04:46.752Z,6.27
2023-01-08T22:07:14.078Z,12.47
2023-01-08T22:09:40.899Z,6.20
2023-01-08T22:12:08.687Z,8.80
2023-01-08T22:14:37.732Z,3.80
2023-01-08T22:17:08.208Z,8.60
2023-01-08T22:19:37.455Z,9.53
2023-01-08T22:22:04.454Z,13.30
2023-01-08T22:24:31.080Z,18.57
2023-01-08T22:26:57.698Z,7.23
2023-01-08T22:29:24.451Z,8.10
2023-01-08T22:31:51.245Z,8.10
2023-01-08T22:34:19.841Z,7.17
2023-01-08T22:36:50.694Z,21.80
2023-01-08T22:39:17.580Z,18.47
2023-01-08T22:41:44.771Z,4.07
2023-01-08T22:44:13.480Z,7.20
2023-01-08T22:46:40.706Z,5.67
2023-01-08T22:49:09.912Z,4.10
2023-01-08T22:51:41.224Z,4.40
2023-01-08T22:54:07.928Z,5.30
2023-01-08T22:56:34.395Z,11.63
2023-01-08T22:59:00.933Z,8.23
2023-01-08T23:01:27.899Z,6.20
2023-01-08T23:03:57.032Z,3.30
2023-01-08T23:06:25.888Z,3.70
2023-01-08T23:08:53.465Z,2.93
2023-01-08T23:11:22.516Z,3.27
2023-01-08T23:13:54.051Z,2.77
2023-01-08T23:16:24.812Z,2.73
2023-01-08T23:18:52.595Z,2.23
2023-01-08T23:21:21.130Z,2.10
2023-01-08T23:23:48.485Z,1.70
2023-01-08T23:26:21.004Z,2.07
2023-01-08T23:28:50.988Z,3.07
2023-01-08T23:31:21.594Z,1.73
2023-01-08T23:33:48.890Z,1.47
2023-01-08T23:36:18.439Z,1.57
2023-01-08T23:38:46.473Z,1.03
2023-01-08T23:41:13.743Z,1.33
2023-01-08T23:43:42.142Z,1.30
2023-01-08T23:46:09.662Z,2.27
2023-01-08T23:48:36.211Z,1.57
2023-01-08T23:51:04.433Z,1.03
2023-01-08T23:53:31.130Z,1.20
2023-01-08T23:55:58.685Z,2.00
2023-01-08T23:58:25.504Z,1.20
